Time;durP1;ratioP1;P1;durP2;ratioP2;P2;SDS_P1;SDS_P2;PMS_P1;PMS_P2;Temp;Humidity;BMP_temperature;BMP_pressure;BME280_temperature;BME280_humidity;BME280_pressure;Samples;Min_cycle;Max_cycle;Signal;HPM_P1;HPM_P2
2023/10/01 00:00:08;;;;;;;20.45;10.70;;;18.30;99.90;;;;;;4955537;29;20107;-69
2023/10/01 00:02:37;;;;;;;20.55;10.75;;;18.10;99.90;;;;;;4955514;29;20114;-70
2023/10/01 00:05:06;;;;;;;21.45;10.93;;;18.10;99.90;;;;;;4955190;29;20019;-70
2023/10/01 00:07:40;;;;;;;21.13;11.35;;;;;;;;;;4955687;29;20063;-70
2023/10/01 00:10:11;;;;;;;20.77;11.77;;;18.90;99.90;;;;;;4955281;29;20074;-71
2023/10/01 00:12:47;;;;;;;18.20;11.38;;;18.10;99.90;;;;;;4948310;29;20042;-70
2023/10/01 00:15:21;;;;;;;19.58;10.73;;;18.00;99.90;;;;;;4955320;29;20497;-69
2023/10/01 00:17:50;;;;;;;20.65;10.70;;;18.00;99.90;;;;;;4955450;29;20467;-70
2023/10/01 00:20:22;;;;;;;19.45;10.85;;;18.00;99.90;;;;;;4942775;29;20051;-70
2023/10/01 00:22:51;;;;;;;20.77;10.63;;;17.90;99.90;;;;;;4955367;29;20031;-70
2023/10/01 00:25:22;;;;;;;19.00;10.73;;;17.90;99.90;;;;;;4955111;29;20027;-70
2023/10/01 00:27:49;;;;;;;18.05;10.13;;;17.70;99.90;;;;;;4954988;29;20427;-71
2023/10/01 00:30:15;;;;;;;19.88;11.00;;;17.70;99.90;;;;;;4954912;29;20037;-69
2023/10/01 00:32:42;;;;;;;21.23;10.98;;;17.60;99.90;;;;;;4954793;29;20063;-70
2023/10/01 00:35:11;;;;;;;20.65;10.48;;;;;;;;;;4942177;29;20031;-71
2023/10/01 00:37:38;;;;;;;20.88;10.98;;;;;;;;;;4955001;29;20521;-70
2023/10/01 00:40:06;;;;;;;21.42;11.65;;;17.60;99.90;;;;;;4954633;29;20059;-70
2023/10/01 00:42:36;;;;;;;23.88;11.32;;;17.70;99.90;;;;;;4954778;29;20108;-70
2023/10/01 00:45:02;;;;;;;22.58;11.70;;;;;;;;;;4954756;29;20098;-71
2023/10/01 00:47:30;;;;;;;20.55;10.85;;;17.60;99.90;;;;;;4954557;29;20150;-72
2023/10/01 00:49:58;;;;;;;19.63;9.55;;;17.50;99.90;;;;;;4954169;29;20023;-70
2023/10/01 00:52:24;;;;;;;20.35;10.80;;;17.50;99.90;;;;;;4954900;29;20056;-71
2023/10/01 00:54:51;;;;;;;19.17;10.65;;;17.40;99.90;;;;;;4950687;29;20124;-70
2023/10/01 00:57:17;;;;;;;24.33;11.63;;;17.40;99.90;;;;;;4925609;29;20460;-72
2023/10/01 00:59:46;;;;;;;23.20;11.50;;;17.30;99.90;;;;;;4941283;29;20035;-70
2023/10/01 01:02:15;;;;;;;19.05;10.02;;;17.30;99.90;;;;;;4957571;28;20023;-71
2023/10/01 01:05:05;;;;;;;19.00;11.00;;;17.30;99.90;;;;;;4960088;29;20387;-72
2023/10/01 01:07:36;;;;;;;24.83;11.27;;;;;;;;;;4944213;29;20101;-71
2023/10/01 01:10:04;;;;;;;21.48;10.93;;;17.30;99.90;;;;;;4959926;28;20094;-70
2023/10/01 01:12:29;;;;;;;21.33;10.70;;;17.20;99.90;;;;;;4960755;28;20038;-71
2023/10/01 01:14:58;;;;;;;18.60;9.70;;;;;;;;;;4960497;28;20467;-70
2023/10/01 01:17:27;;;;;;;22.85;11.70;;;;;;;;;;4942800;29;20526;-70
2023/10/01 01:19:55;;;;;;;21.92;11.00;;;17.20;99.90;;;;;;4944012;29;20043;-70
2023/10/01 01:22:29;;;;;;;21.88;10.68;;;17.20;99.90;;;;;;4961060;29;20021;-72
2023/10/01 01:24:57;;;;;;;19.38;9.98;;;17.20;99.90;;;;;;4959393;29;20031;-71
2023/10/01 01:27:23;;;;;;;21.13;10.82;;;17.20;99.90;;;;;;4935049;29;20126;-69
2023/10/01 01:29:50;;;;;;;21.45;11.38;;;17.10;99.90;;;;;;4961108;29;20475;-70
2023/10/01 01:32:19;;;;;;;20.80;10.48;;;17.10;99.90;;;;;;4939667;29;20044;-69
2023/10/01 01:34:45;;;;;;;19.75;10.85;;;17.00;99.90;;;;;;4940810;29;20383;-70
2023/10/01 01:37:46;;;;;;;22.80;11.07;;;;;;;;;;4956831;28;20027;-70
2023/10/01 01:40:26;;;;;;;24.42;10.90;;;16.90;99.90;;;;;;4958168;29;20094;-71
2023/10/01 01:42:56;;;;;;;20.73;11.25;;;16.90;99.90;;;;;;4951858;29;20535;-70
2023/10/01 01:45:32;;;;;;;22.00;10.75;;;16.70;99.90;;;;;;4960036;28;20027;-70
2023/10/01 01:48:01;;;;;;;24.00;11.00;;;16.90;99.90;;;;;;4959972;28;20063;-70
2023/10/01 01:50:27;;;;;;;20.52;10.95;;;16.90;99.90;;;;;;4957013;29;20496;-71
2023/10/01 01:52:57;;;;;;;21.25;11.32;;;16.90;99.90;;;;;;4959451;29;20032;-71
2023/10/01 01:55:27;;;;;;;21.90;10.40;;;16.70;99.90;;;;;;4949224;29;20023;-71
2023/10/01 01:58:08;;;;;;;25.00;11.13;;;16.90;99.90;;;;;;4952451;29;20601;-70
2023/10/01 02:00:37;;;;;;;20.50;10.88;;;16.80;99.90;;;;;;4959583;28;20073;-71
2023/10/01 02:03:10;;;;;;;20.58;10.82;;;15.90;99.90;;;;;;4960020;28;20144;-71
2023/10/01 02:05:47;;;;;;;21.55;10.73;;;16.70;99.90;;;;;;4959578;29;20487;-71
2023/10/01 02:10:59;;;;;;;18.45;10.60;;;16.60;99.90;;;;;;4940383;28;20036;-70
2023/10/01 02:13:26;;;;;;;23.55;11.90;;;16.80;99.90;;;;;;4939713;29;20384;-71
2023/10/01 02:15:53;;;;;;;20.23;10.77;;;16.70;99.90;;;;;;4936709;29;20031;-71
2023/10/01 02:18:20;;;;;;;24.88;10.45;;;16.80;99.90;;;;;;4946350;29;20045;-70
2023/10/01 02:20:56;;;;;;;18.08;9.77;;;16.80;99.90;;;;;;4957109;29;20428;-70
2023/10/01 02:23:26;;;;;;;19.13;10.30;;;16.80;99.90;;;;;;4946315;28;20131;-70
2023/10/01 02:25:53;;;;;;;20.50;9.85;;;16.90;99.90;;;;;;4939942;29;20182;-72
2023/10/01 02:28:19;;;;;;;20.60;10.63;;;16.70;99.90;;;;;;4952141;29;20024;-71
2023/10/01 02:30:45;;;;;;;20.67;10.00;;;16.70;99.90;;;;;;4956773;29;20024;-70
2023/10/01 02:33:18;;;;;;;20.80;10.02;;;16.80;99.90;;;;;;4939310;29;20483;-74
2023/10/01 02:35:49;;;;;;;18.90;10.10;;;16.70;99.90;;;;;;4957418;29;20396;-71
2023/10/01 02:41:02;;;;;;;17.80;9.90;;;16.90;99.90;;;;;;4939844;29;20034;-72
2023/10/01 02:43:40;;;;;;;23.55;11.13;;;16.90;99.90;;;;;;4956940;29;20022;-70
2023/10/01 02:46:12;;;;;;;21.08;10.02;;;16.90;99.90;;;;;;4955541;28;20047;-70
2023/10/01 02:48:41;;;;;;;21.88;11.57;;;16.90;99.90;;;;;;4936391;29;20042;-70
2023/10/01 02:51:14;;;;;;;19.40;10.20;;;16.90;99.90;;;;;;4950392;29;20042;-70
2023/10/01 02:53:42;;;;;;;;;;;16.90;99.90;;;;;;4956551;29;20495;-70
2023/10/01 02:56:12;;;;;;;20.33;9.95;;;17.00;99.90;;;;;;4956208;29;20381;-70
2023/10/01 02:58:49;;;;;;;21.55;10.57;;;17.00;99.90;;;;;;4951550;29;20062;-71
2023/10/01 03:01:15;;;;;;;20.05;11.00;;;17.00;99.90;;;;;;4933131;29;20031;-71
2023/10/01 03:03:41;;;;;;;22.23;10.63;;;17.10;99.90;;;;;;4935331;29;20031;-69
2023/10/01 03:06:10;;;;;;;22.05;11.30;;;17.10;99.90;;;;;;4953839;29;20035;-70
2023/10/01 03:11:22;;;;;;;21.02;11.00;;;17.10;99.90;;;;;;4955774;29;20078;-70
2023/10/01 03:13:51;;;;;;;23.08;10.82;;;17.20;99.90;;;;;;4938611;29;20035;-69
2023/10/01 03:24:33;;;;;;;21.92;11.38;;;17.10;99.90;;;;;;4952156;29;20430;-70
2023/10/01 03:27:13;;;;;;;23.35;11.05;;;17.10;99.90;;;;;;4953802;29;20130;-71
2023/10/01 03:29:42;;;;;;;19.17;10.05;;;17.00;99.90;;;;;;4944390;29;20078;-72
2023/10/01 03:32:27;;;;;;;21.10;10.48;;;17.00;99.90;;;;;;4945246;29;20034;-71
2023/10/01 03:34:53;;;;;;;20.50;9.77;;;17.00;99.90;;;;;;4951449;29;20015;-71
2023/10/01 03:37:22;;;;;;;18.58;10.38;;;17.10;99.90;;;;;;4946306;29;20035;-71
2023/10/01 03:39:52;;;;;;;18.30;9.85;;;17.00;99.90;;;;;;4943191;29;20035;-71
2023/10/01 03:42:18;;;;;;;21.92;10.57;;;17.00;99.90;;;;;;4947582;29;20024;-70
2023/10/01 03:45:19;;;;;;;20.70;10.27;;;17.10;99.90;;;;;;4954207;29;20395;-72
2023/10/01 03:47:57;;;;;;;21.40;10.27;;;17.10;99.90;;;;;;4955989;29;20051;-72
2023/10/01 03:50:25;;;;;;;19.58;10.93;;;17.10;99.90;;;;;;4954828;29;20447;-71
2023/10/01 03:52:58;;;;;;;20.75;10.60;;;17.00;99.90;;;;;;4954813;29;20026;-71
2023/10/01 03:55:28;;;;;;;24.00;10.73;;;17.00;99.90;;;;;;4955542;29;20110;-71
2023/10/01 04:00:53;;;;;;;19.50;10.35;;;17.00;99.90;;;;;;4951869;29;20038;-73
2023/10/01 04:03:21;;;;;;;21.20;10.65;;;16.90;99.90;;;;;;4941493;28;20444;-71
2023/10/01 04:05:48;;;;;;;24.73;11.15;;;16.90;99.90;;;;;;4955425;29;20023;-71
2023/10/01 04:08:14;;;;;;;21.20;10.25;;;17.00;99.90;;;;;;4955252;29;20035;-71
2023/10/01 04:10:41;;;;;;;24.52;10.30;;;17.00;99.90;;;;;;4955395;29;20022;-71
2023/10/01 04:15:55;;;;;;;20.38;10.52;;;17.00;99.90;;;;;;4950048;29;20031;-72
2023/10/01 04:18:23;;;;;;;20.80;10.07;;;16.90;99.90;;;;;;4955292;29;20503;-71
2023/10/01 04:23:32;;;;;;;18.27;9.52;;;16.90;99.90;;;;;;4955498;29;20020;-71
2023/10/01 04:26:05;;;;;;;19.05;9.73;;;16.90;99.90;;;;;;4955421;29;20042;-71
2023/10/01 04:28:44;;;;;;;18.15;9.80;;;16.90;99.90;;;;;;4954973;29;20114;-72
2023/10/01 04:31:16;;;;;;;19.85;9.63;;;16.90;99.90;;;;;;4955179;29;20114;-72
2023/10/01 04:33:45;;;;;;;20.00;9.57;;;16.90;99.90;;;;;;4948065;28;20035;-71
2023/10/01 04:36:16;;;;;;;17.42;10.02;;;16.90;99.90;;;;;;4954973;29;20126;-71
2023/10/01 04:38:48;;;;;;;18.95;9.77;;;16.80;99.90;;;;;;4955106;29;20498;-72
2023/10/01 04:41:16;;;;;;;18.23;8.68;;;16.80;99.90;;;;;;4955008;29;20031;-72
2023/10/01 04:43:55;;;;;;;18.30;9.57;;;16.80;99.90;;;;;;4937860;29;20423;-73
2023/10/01 04:46:24;;;;;;;18.67;9.27;;;16.80;99.90;;;;;;4954608;29;20065;-71
2023/10/01 04:48:51;;;;;;;16.90;9.32;;;16.80;99.90;;;;;;4937847;29;20388;-71
2023/10/01 04:51:21;;;;;;;26.15;9.68;;;16.80;99.90;;;;;;4954547;29;20400;-71
2023/10/01 04:53:48;;;;;;;17.58;8.80;;;16.80;99.90;;;;;;4937646;29;20030;-71
2023/10/01 04:56:25;;;;;;;18.15;9.23;;;16.80;99.90;;;;;;4954259;29;20402;-71
2023/10/01 04:58:54;;;;;;;17.65;8.18;;;16.80;99.90;;;;;;4954456;29;20030;-71
2023/10/01 05:01:28;;;;;;;20.13;9.48;;;17.10;99.90;;;;;;4954248;29;20055;-71
2023/10/01 05:03:56;;;;;;;21.35;10.70;;;16.60;99.90;;;;;;4937698;29;20102;-71
2023/10/01 05:06:22;;;;;;;21.17;9.05;;;16.70;99.90;;;;;;4954232;29;20059;-71
2023/10/01 05:08:52;;;;;;;20.58;9.25;;;16.70;99.90;;;;;;4954599;29;20086;-71
2023/10/01 05:11:21;;;;;;;17.80;9.13;;;16.70;99.90;;;;;;4954261;29;20047;-71
2023/10/01 05:13:48;;;;;;;24.30;9.50;;;16.70;99.90;;;;;;4954333;29;20023;-71
2023/10/01 05:16:18;;;;;;;17.27;9.02;;;16.80;99.90;;;;;;4954221;29;20038;-73
2023/10/01 05:18:48;;;;;;;18.13;8.63;;;16.80;99.90;;;;;;4954290;29;20038;-71
2023/10/01 05:21:18;;;;;;;18.70;8.73;;;16.80;99.90;;;;;;4949873;29;20023;-72
2023/10/01 05:23:47;;;;;;;19.90;9.80;;;16.90;99.90;;;;;;4950035;29;20031;-71
2023/10/01 05:26:20;;;;;;;15.15;8.38;;;16.90;99.90;;;;;;4953969;29;20078;-71
2023/10/01 05:28:48;;;;;;;16.83;7.82;;;16.90;99.90;;;;;;4954273;29;20464;-71
2023/10/01 05:31:24;;;;;;;14.85;8.48;;;16.90;99.90;;;;;;4954034;29;20031;-72
2023/10/01 05:33:58;;;;;;;17.58;9.00;;;16.90;99.90;;;;;;4952649;29;20027;-71
2023/10/01 05:36:24;;;;;;;18.60;9.32;;;16.90;99.90;;;;;;4954193;29;20027;-70
2023/10/01 05:38:53;;;;;;;17.17;8.73;;;17.00;99.90;;;;;;4948308;29;20062;-71
2023/10/01 05:41:29;;;;;;;18.88;8.90;;;17.00;99.90;;;;;;4954170;29;20039;-71
2023/10/01 05:43:56;;;;;;;18.52;7.85;;;17.40;99.90;;;;;;4925680;28;20058;-73
2023/10/01 05:46:27;;;;;;;18.73;7.95;;;17.60;99.90;;;;;;4955463;28;20526;-71
2023/10/01 05:49:00;;;;;;;19.17;8.82;;;17.90;99.90;;;;;;4947337;29;20050;-74
2023/10/01 05:51:30;;;;;;;19.08;8.77;;;17.80;99.90;;;;;;4958092;29;20485;-74
2023/10/01 05:53:56;;;;;;;17.33;8.35;;;17.70;99.90;;;;;;4957667;29;20023;-71
2023/10/01 05:56:36;;;;;;;19.65;8.00;;;17.80;99.90;;;;;;4944532;29;20058;-71
2023/10/01 05:59:03;;;;;;;15.00;8.52;;;17.70;99.90;;;;;;4954765;29;20039;-72
2023/10/01 06:01:33;;;;;;;20.88;7.65;;;17.60;99.90;;;;;;4929097;29;20398;-72
2023/10/01 06:03:59;;;;;;;16.25;7.40;;;17.60;99.90;;;;;;4957605;29;20023;-71
2023/10/01 06:06:25;;;;;;;16.33;7.43;;;17.60;99.90;;;;;;4956523;29;20102;-71
2023/10/01 06:09:00;;;;;;;16.90;7.28;;;17.50;99.90;;;;;;4953763;29;20478;-71
2023/10/01 06:17:00;;;;;;;14.32;7.03;;;17.60;99.90;;;;;;4957213;29;20031;-71
2023/10/01 06:19:27;;;;;;;12.45;6.90;;;17.60;99.90;;;;;;4953647;29;20109;-72
2023/10/01 06:21:53;;;;;;;16.98;7.43;;;17.60;99.90;;;;;;4955334;29;20087;-71
2023/10/01 06:24:21;;;;;;;15.45;7.05;;;17.60;99.90;;;;;;4957362;29;20028;-71
2023/10/01 06:26:48;;;;;;;17.63;7.82;;;17.70;99.90;;;;;;4937231;29;20066;-72
2023/10/01 06:29:14;;;;;;;14.23;6.68;;;17.60;99.90;;;;;;4957466;29;20042;-72
2023/10/01 06:31:53;;;;;;;13.55;6.97;;;17.70;99.90;;;;;;4956478;29;20074;-71
2023/10/01 06:34:24;;;;;;;15.02;6.15;;;17.70;99.90;;;;;;4952921;29;20469;-71
2023/10/01 06:36:56;;;;;;;12.00;6.25;;;17.80;99.90;;;;;;4953275;29;20035;-71
2023/10/01 06:39:30;;;;;;;14.93;5.88;;;17.80;99.90;;;;;;4957433;29;20387;-71
2023/10/01 06:44:41;;;;;;;10.63;5.72;;;17.80;99.90;;;;;;4956986;29;20388;-71
2023/10/01 06:47:14;;;;;;;12.07;5.43;;;17.90;99.90;;;;;;4956754;29;20351;-70
2023/10/01 06:52:41;;;;;;;15.38;6.28;;;18.00;99.90;;;;;;4956522;29;20229;-71
2023/10/01 06:55:08;;;;;;;12.13;5.97;;;18.00;99.90;;;;;;4955851;29;20038;-70
2023/10/01 06:57:33;;;;;;;14.13;6.82;;;18.10;99.90;;;;;;4956525;28;20034;-72
2023/10/01 07:00:00;;;;;;;13.85;6.35;;;18.10;99.90;;;;;;4955229;29;20450;-71
2023/10/01 07:02:27;;;;;;;14.25;7.03;;;18.30;99.90;;;;;;4956269;29;20019;-71
2023/10/01 07:04:58;;;;;;;10.60;6.68;;;18.40;99.90;;;;;;4950423;29;20035;-71
2023/10/01 07:07:25;;;;;;;13.27;7.15;;;18.40;99.90;;;;;;4954034;29;20043;-71
2023/10/01 07:09:53;;;;;;;12.35;6.63;;;18.60;99.90;;;;;;4956780;29;20367;-70
2023/10/01 07:12:20;;;;;;;14.10;7.30;;;18.70;99.90;;;;;;4953705;28;20033;-71
2023/10/01 07:14:50;;;;;;;14.88;7.28;;;18.70;99.90;;;;;;4956154;29;20027;-72
2023/10/01 07:17:24;;;;;;;11.23;6.32;;;18.80;99.90;;;;;;4956508;29;20164;-71
2023/10/01 07:20:02;;;;;;;14.35;6.30;;;19.00;99.90;;;;;;4956184;29;20046;-70
2023/10/01 07:22:32;;;;;;;11.40;5.93;;;18.90;99.90;;;;;;4955578;29;20074;-72
2023/10/01 07:24:59;;;;;;;9.77;5.88;;;19.00;99.90;;;;;;4955316;29;20038;-70
2023/10/01 07:27:28;;;;;;;12.48;7.15;;;19.00;99.90;;;;;;4954123;29;20098;-71
2023/10/01 07:29:55;;;;;;;12.20;5.65;;;19.10;99.90;;;;;;4956217;29;20024;-71
2023/10/01 07:32:23;;;;;;;12.93;6.15;;;19.10;99.90;;;;;;4943190;29;20118;-71
2023/10/01 07:34:58;;;;;;;12.70;6.57;;;19.20;99.90;;;;;;4952114;29;20062;-71
2023/10/01 07:37:26;;;;;;;18.40;7.00;;;19.20;99.90;;;;;;4954911;29;20448;-71
2023/10/01 07:39:59;;;;;;;11.38;6.40;;;19.10;99.90;;;;;;4955250;29;20109;-73
2023/10/01 07:42:27;;;;;;;17.17;8.38;;;19.20;99.90;;;;;;4946519;29;20074;-73
2023/10/01 07:44:53;;;;;;;12.02;6.63;;;19.10;99.90;;;;;;4955297;29;20019;-70
2023/10/01 07:47:31;;;;;;;14.32;6.90;;;19.10;99.90;;;;;;4955777;29;20058;-71
2023/10/01 07:50:12;;;;;;;11.55;6.95;;;19.10;99.90;;;;;;4952474;29;20043;-74
2023/10/01 07:52:40;;;;;;;11.88;7.30;;;19.00;99.90;;;;;;4944097;29;20035;-71
2023/10/01 07:58:22;;;;;;;14.95;6.45;;;18.70;99.90;;;;;;4951734;29;20114;-72
2023/10/01 08:00:43;;;;;;;13.98;6.95;;;18.70;99.90;;;;;;4954555;29;20475;-71
2023/10/01 08:06:10;;;;;;;15.57;6.00;;;19.00;99.90;;;;;;4954870;29;20438;-72
2023/10/01 08:08:37;;;;;;;12.60;6.93;;;19.20;99.90;;;;;;4951485;28;20027;-71
2023/10/01 08:13:51;;;;;;;12.38;6.93;;;19.40;99.90;;;;;;4955290;29;20082;-73
2023/10/01 08:16:16;;;;;;;14.98;5.82;;;19.60;99.90;;;;;;4954378;29;20039;-71
2023/10/01 08:18:46;;;;;;;12.15;6.90;;;19.70;99.90;;;;;;4937702;29;20027;-72
2023/10/01 08:21:15;;;;;;;10.00;6.10;;;19.90;99.90;;;;;;4939952;29;20087;-70
2023/10/01 08:23:48;;;;;;;10.35;6.20;;;19.80;99.90;;;;;;4946910;29;20028;-73
2023/10/01 08:29:00;;;;;;;12.63;6.85;;;19.80;99.90;;;;;;4944332;29;20027;-72
2023/10/01 08:34:28;;;;;;;15.50;6.70;;;19.90;99.90;;;;;;4884090;29;20485;-72
2023/10/01 08:37:06;;;;;;;12.60;5.13;;;20.00;99.90;;;;;;4889669;29;20033;-73
2023/10/01 08:39:48;;;;;;;8.68;5.47;;;20.00;99.90;;;;;;4889723;29;20033;-73
2023/10/01 08:42:17;;;;;;;12.18;5.97;;;19.90;99.90;;;;;;4887240;29;20049;-73
2023/10/01 08:44:49;;;;;;;12.93;6.80;;;20.00;99.90;;;;;;4896048;29;20068;-71
2023/10/01 08:52:52;;;;;;;10.23;5.95;;;20.10;99.90;;;;;;4895955;29;20037;-71
2023/10/01 08:55:39;;;;;;;12.20;6.07;;;19.70;99.90;;;;;;4895978;29;20040;-72
2023/10/01 08:58:24;;;;;;;11.88;5.97;;;19.80;99.90;;;;;;4880381;29;20044;-73
2023/10/01 09:00:53;;;;;;;9.63;5.25;;;19.60;99.90;;;;;;4885322;29;20025;-74
2023/10/01 09:03:34;;;;;;;11.32;5.38;;;19.80;99.90;;;;;;4893265;29;20071;-70
2023/10/01 09:06:03;;;;;;;10.45;5.07;;;19.80;99.90;;;;;;4889081;29;20043;-72
2023/10/01 09:08:31;;;;;;;10.70;5.25;;;19.80;99.90;;;;;;4910965;29;20110;-72
2023/10/01 09:11:10;;;;;;;13.57;5.70;;;19.70;99.90;;;;;;4954185;29;20081;-71
2023/10/01 09:13:45;;;;;;;9.45;5.57;;;19.70;99.90;;;;;;4931455;29;20179;-72
2023/10/01 09:16:12;;;;;;;14.20;6.28;;;19.80;99.90;;;;;;4954394;29;20558;-73
2023/10/01 09:21:43;;;;;;;12.75;5.07;;;20.40;99.90;;;;;;4958087;29;20032;-71
2023/10/01 09:24:38;;;;;;;11.35;5.72;;;20.40;99.90;;;;;;4958569;29;20039;-71
2023/10/01 09:27:18;;;;;;;13.02;5.55;;;20.40;99.90;;;;;;4954447;29;20114;-72
2023/10/01 09:29:46;;;;;;;9.93;5.70;;;20.60;99.90;;;;;;4946793;29;20464;-73
2023/10/01 09:32:19;;;;;;;9.43;5.38;;;20.60;99.90;;;;;;4957524;28;20027;-71
2023/10/01 09:34:57;;;;;;;13.82;5.70;;;20.70;99.90;;;;;;4961180;28;20032;-71
2023/10/01 09:37:35;;;;;;;9.25;5.65;;;20.70;99.90;;;;;;4958143;29;20035;-71
2023/10/01 09:40:05;;;;;;;7.43;4.90;;;20.80;99.90;;;;;;4957861;29;20023;-72
2023/10/01 09:42:44;;;;;;;11.43;6.05;;;20.60;99.90;;;;;;4958320;29;20063;-73
2023/10/01 09:45:26;;;;;;;11.77;5.70;;;20.40;99.90;;;;;;4957939;29;20028;-71
2023/10/01 09:48:09;;;;;;;15.55;5.70;;;20.50;99.90;;;;;;4951244;29;20055;-72
2023/10/01 09:50:41;;;;;;;10.93;5.65;;;20.80;99.90;;;;;;4946111;29;20488;-72
2023/10/01 09:53:17;;;;;;;12.32;5.95;;;21.10;99.90;;;;;;4961593;28;20039;-72
2023/10/01 09:55:48;;;;;;;10.35;4.95;;;21.10;99.90;;;;;;4960539;28;20095;-71
2023/10/01 09:58:24;;;;;;;10.68;5.50;;;21.00;99.90;;;;;;4957293;29;20031;-72
2023/10/01 10:01:02;;;;;;;15.60;5.78;;;21.10;99.90;;;;;;4954877;29;20040;-71
2023/10/01 10:03:37;;;;;;;13.18;5.65;;;21.00;99.90;;;;;;4942746;28;20062;-71
2023/10/01 10:06:09;;;;;;;9.35;4.47;;;21.00;99.90;;;;;;4956777;29;20130;-71
2023/10/01 10:08:36;;;;;;;12.43;4.93;;;21.00;99.90;;;;;;4953407;29;20039;-71
2023/10/01 10:11:06;;;;;;;10.35;5.30;;;21.10;99.90;;;;;;4957442;29;20391;-72
2023/10/01 10:13:45;;;;;;;11.60;4.85;;;21.20;99.90;;;;;;4957247;29;20036;-71
2023/10/01 10:19:13;;;;;;;15.60;5.88;;;21.00;99.90;;;;;;4960662;28;20042;-71
2023/10/01 10:24:29;;;;;;;11.60;5.20;;;21.10;99.90;;;;;;4958999;28;20027;-71
2023/10/01 10:27:03;;;;;;;10.68;5.32;;;21.00;99.90;;;;;;4957494;28;20101;-71
2023/10/01 10:29:47;;;;;;;12.50;5.95;;;20.90;99.90;;;;;;4945306;28;20034;-72
2023/10/01 10:32:13;;;;;;;10.57;4.97;;;21.10;99.90;;;;;;4956045;28;20039;-72
2023/10/01 10:35:05;;;;;;;8.60;4.80;;;21.30;99.90;;;;;;4950610;28;20035;-70
2023/10/01 10:37:37;;;;;;;8.65;4.72;;;21.20;99.90;;;;;;4944430;29;20368;-73
2023/10/01 10:40:22;;;;;;;9.70;4.53;;;21.50;99.90;;;;;;4954886;29;20506;-70
2023/10/01 10:42:57;;;;;;;9.70;4.65;;;21.50;99.90;;;;;;4942476;29;20384;-71
2023/10/01 10:45:42;;;;;;;10.27;4.82;;;21.60;99.90;;;;;;4950701;28;20028;-71
2023/10/01 10:48:16;;;;;;;10.85;4.85;;;21.60;99.90;;;;;;4957064;29;20093;-72
2023/10/01 10:50:57;;;;;;;11.18;4.68;;;21.70;99.90;;;;;;4960842;28;20023;-71
2023/10/01 10:53:39;;;;;;;11.00;5.38;;;21.60;99.90;;;;;;4956834;29;20092;-71
2023/10/01 10:56:07;;;;;;;8.18;4.53;;;21.70;99.90;;;;;;4966745;28;20035;-71
2023/10/01 10:58:41;;;;;;;13.30;4.88;;;21.50;99.90;;;;;;4956789;29;20054;-70
2023/10/01 11:01:20;;;;;;;11.65;5.82;;;21.60;99.90;;;;;;4956012;29;20031;-73
2023/10/01 11:03:57;;;;;;;8.73;4.65;;;21.70;99.90;;;;;;4965457;28;20498;-71
2023/10/01 11:06:44;;;;;;;8.48;3.85;;;21.60;99.90;;;;;;4959233;28;20463;-71
2023/10/01 11:09:26;;;;;;;9.02;4.97;;;21.70;99.90;;;;;;4956632;29;20090;-71
2023/10/01 11:11:52;;;;;;;;;;;21.70;99.90;;;;;;4956236;28;20039;-71
2023/10/01 11:14:19;;;;;;;9.18;4.55;;;21.70;99.90;;;;;;4955801;29;19920;-72
2023/10/01 11:16:51;;;;;;;10.90;4.65;;;21.80;99.90;;;;;;4939331;29;20082;-70
2023/10/01 11:19:25;;;;;;;11.85;4.97;;;21.70;99.90;;;;;;4956477;29;20480;-72
2023/10/01 11:22:00;;;;;;;6.63;3.85;;;22.00;99.90;;;;;;4956412;29;20067;-70
2023/10/01 11:24:39;;;;;;;6.90;3.53;;;22.00;99.90;;;;;;4956227;29;20126;-71
2023/10/01 11:27:43;;;;;;;6.43;3.78;;;22.20;98.60;;;;;;4956262;29;20094;-70
2023/10/01 11:30:17;;;;;;;11.07;4.13;;;22.20;98.90;;;;;;4956323;29;20475;-72
2023/10/01 11:33:29;;;;;;;6.30;4.30;;;22.30;98.70;;;;;;4956001;29;20027;-70
2023/10/01 11:36:09;;;;;;;7.72;4.35;;;22.30;97.90;;;;;;4955865;29;20038;-71
2023/10/01 11:38:38;;;;;;;8.65;3.50;;;22.50;98.10;;;;;;4955798;29;20093;-71
2023/10/01 11:41:12;;;;;;;7.97;3.22;;;24.40;99.90;;;;;;4945293;29;20024;-70
2023/10/01 11:43:41;;;;;;;6.22;3.13;;;22.60;99.90;;;;;;4955117;28;20037;-72
2023/10/01 11:46:24;;;;;;;11.13;4.30;;;22.60;98.20;;;;;;4954490;28;20050;-70
2023/10/01 11:49:04;;;;;;;4.30;3.22;;;22.60;97.90;;;;;;4956334;29;20047;-71
2023/10/01 11:51:30;;;;;;;8.52;3.70;;;;;;;;;;4955548;29;20031;-71
2023/10/01 11:54:08;;;;;;;6.57;3.28;;;22.30;99.90;;;;;;4955684;29;20122;-71
2023/10/01 11:56:47;;;;;;;7.75;3.30;;;22.80;99.70;;;;;;4955777;29;20027;-71
2023/10/01 11:59:18;;;;;;;8.82;3.40;;;22.70;96.70;;;;;;4955800;29;20027;-70
2023/10/01 12:01:52;;;;;;;8.70;3.75;;;22.70;95.80;;;;;;4955947;29;20110;-71
2023/10/01 12:04:25;;;;;;;5.68;3.38;;;22.70;99.90;;;;;;4955553;29;20071;-71
2023/10/01 12:06:54;;;;;;;8.82;4.00;;;22.90;99.50;;;;;;4955857;29;20054;-71
2023/10/01 12:09:24;;;;;;;7.00;3.42;;;22.70;89.70;;;;;;4934802;29;20329;-70
2023/10/01 12:12:03;;;;;;;9.00;3.97;;;22.70;90.00;;;;;;4935149;29;20087;-71
2023/10/01 12:14:32;;;;;;;16.63;3.78;;;22.60;90.10;;;;;;4942835;29;20042;-71
2023/10/01 12:17:01;;;;;;;8.43;3.38;;;22.50;90.50;;;;;;4955217;29;20117;-70
2023/10/01 12:19:29;;;;;;;8.63;3.30;;;22.70;91.70;;;;;;4955384;29;20818;-71
2023/10/01 12:22:07;;;;;;;8.43;3.38;;;22.70;89.30;;;;;;4955239;29;20034;-70
2023/10/01 12:24:39;;;;;;;10.75;4.20;;;22.80;90.00;;;;;;4955252;29;20379;-71
2023/10/01 12:27:10;;;;;;;8.68;3.72;;;22.80;90.50;;;;;;4955122;29;20047;-71
2023/10/01 12:29:43;;;;;;;6.18;3.10;;;22.70;90.50;;;;;;4955222;29;20115;-71
2023/10/01 12:32:14;;;;;;;10.15;3.47;;;22.70;90.40;;;;;;4954842;29;20031;-72
2023/10/01 12:34:43;;;;;;;5.38;2.92;;;22.80;90.30;;;;;;4955436;29;20027;-70
2023/10/01 12:37:35;;;;;;;7.63;3.35;;;22.80;89.80;;;;;;4954955;29;20517;-71
2023/10/01 12:42:39;;;;;;;7.93;3.33;;;23.00;91.40;;;;;;4954990;29;20110;-71
2023/10/01 12:45:19;;;;;;;7.55;3.42;;;23.70;90.90;;;;;;4955002;29;20110;-71
2023/10/01 12:47:51;;;;;;;8.02;2.78;;;22.70;88.70;;;;;;4955066;29;20063;-72
2023/10/01 12:50:26;;;;;;;;;;;22.70;89.30;;;;;;4955509;29;20030;-72
2023/10/01 12:55:51;;;;;;;5.47;2.95;;;22.70;89.50;;;;;;4954615;28;20027;-71
2023/10/01 12:58:35;;;;;;;9.55;4.63;;;22.80;88.90;;;;;;4954586;29;20027;-71
2023/10/01 13:01:23;;;;;;;9.15;3.58;;;22.80;89.10;;;;;;4954600;29;20030;-70
2023/10/01 13:03:50;;;;;;;7.53;3.42;;;22.80;89.10;;;;;;4954938;29;20042;-71
2023/10/01 13:06:16;;;;;;;6.82;2.80;;;22.90;87.70;;;;;;4954486;29;20027;-72
2023/10/01 13:08:42;;;;;;;15.00;3.78;;;22.80;86.20;;;;;;4954213;29;20037;-71
2023/10/01 13:11:59;;;;;;;8.38;3.75;;;22.80;88.30;;;;;;4954388;29;20078;-71
2023/10/01 13:13:55;;;;;;;7.88;3.25;;;22.70;86.20;;;;;;4946523;29;20043;-72
2023/10/01 13:16:20;;;;;;;12.13;4.10;;;22.60;87.70;;;;;;4946180;29;20040;-71
2023/10/01 13:18:46;;;;;;;6.90;3.13;;;22.70;88.60;;;;;;4950233;29;20444;-72
2023/10/01 13:21:12;;;;;;;10.77;5.15;;;22.80;87.90;;;;;;4954432;29;20059;-72
2023/10/01 13:23:41;;;;;;;12.82;4.70;;;22.80;89.90;;;;;;4949938;29;20106;-72
2023/10/01 13:26:31;;;;;;;9.93;3.95;;;22.80;88.80;;;;;;4937099;29;20035;-71
2023/10/01 13:29:00;;;;;;;5.70;3.22;;;22.80;85.10;;;;;;4953234;29;20031;-71
2023/10/01 14:12:13;;;;;;;3.65;1.65;;;22.80;71.70;;;;;;4873728;29;20068;-72
2023/10/01 14:14:43;;;;;;;3.92;1.48;;;22.90;67.60;;;;;;4936613;29;20038;-72
2023/10/01 14:17:13;;;;;;;6.03;2.20;;;22.80;68.60;;;;;;4957390;29;20179;-71
2023/10/01 14:19:42;;;;;;;3.88;1.83;;;22.90;65.80;;;;;;4957595;29;20491;-72
2023/10/01 14:22:19;;;;;;;2.83;1.58;;;22.80;67.10;;;;;;4957787;29;20035;-69
2023/10/01 14:24:49;;;;;;;3.30;1.55;;;22.90;66.80;;;;;;4957346;29;20031;-71
2023/10/01 14:27:24;;;;;;;4.00;1.73;;;23.00;66.10;;;;;;4957184;29;20057;-70
2023/10/01 14:32:38;;;;;;;3.28;1.52;;;23.10;64.50;;;;;;4944646;29;20055;-71
2023/10/01 14:35:14;;;;;;;5.28;1.50;;;23.10;64.90;;;;;;4957455;29;20030;-71
2023/10/01 14:37:53;;;;;;;4.75;2.17;;;23.00;65.30;;;;;;4956851;29;20035;-69
2023/10/01 14:40:23;;;;;;;5.80;2.17;;;23.10;65.90;;;;;;4957205;29;20090;-70
2023/10/01 14:42:58;;;;;;;2.28;1.70;;;23.00;66.00;;;;;;4957066;29;20027;-69
2023/10/01 14:45:34;;;;;;;3.65;1.15;;;22.90;64.10;;;;;;4957288;29;20078;-70
2023/10/01 14:48:06;;;;;;;2.88;1.55;;;22.80;64.50;;;;;;4956432;29;20051;-70
2023/10/01 14:50:42;;;;;;;5.65;1.50;;;22.80;64.60;;;;;;4956460;29;20034;-73
2023/10/01 14:53:18;;;;;;;7.90;1.85;;;22.60;65.50;;;;;;4945142;29;20118;-71
2023/10/01 14:55:44;;;;;;;6.07;1.65;;;22.60;63.80;;;;;;4957034;29;20126;-71
2023/10/01 14:58:15;;;;;;;5.18;1.40;;;22.60;66.30;;;;;;4956998;29;20519;-71